Date,TemperatureHighF,TemperatureAvgF,TemperatureLowF,DewpointHighF,DewpointAvgF,DewpointLowF,HumidityHigh,HumidityAvg,HumidityLow,PressureMaxIn,PressureMinIn,WindSpeedMaxMPH,WindSpeedAvgMPH,GustSpeedMaxMPH,PrecipitationSumIn
2013-2-1,30,15,-3,13,1,-15,57,53,43,28.91,17.72,20,7,34,0.00
2013-2-2,38,31,25,29,18,12,77,58,44,29.03,28.88,22,4,30,0.00
2013-2-3,42,33,18,23,17,5,64,52,40,29.03,28.61,31,8,40,0.00
2013-2-4,36,28,22,25,17,11,82,65,50,28.85,28.61,42,8,46,0.00
2013-2-5,49,36,26,31,22,17,87,61,34,28.91,28.67,39,6,39,0.00
2013-2-6,54,42,30,30,26,21,76,55,38,28.91,28.67,15,2,35,0.00
2013-2-7,41,34,29,31,25,17,81,69,59,29.06,28.73,34,14,41,0.00
2013-2-8,35,30,26,25,20,17,86,69,51,29.18,28.97,15,2,22,0.00
2013-2-9,49,38,28,30,28,25,88,68,47,28.97,28.53,25,6,30,0.00
2013-2-10,47,38,30,42,29,16,87,69,51,28.61,28.11,41,14,56,0.00
2013-2-11,36,30,20,20,15,13,73,55,44,28.97,28.64,38,7,55,0.00
2013-2-12,48,31,18,27,16,12,86,57,31,28.97,28.73,13,0,28,0.00
2013-2-13,53,37,22,28,20,12,79,53,31,28.73,28.56,12,0,24,0.00
2013-2-14,45,37,21,29,22,8,85,56,34,29.12,28.61,28,3,45,0.00
2013-2-15,35,24,14,21,11,5,84,60,37,29.18,29.12,13,0,30,0.00
2013-2-16,36,25,8,20,13,0,78,61,47,29.15,28.85,0,0,8,0.00
2013-2-17,54,39,24,29,22,16,74,53,36,28.82,28.41,0,0,17,0.00
2013-2-18,42,32,21,30,19,7,89,59,43,28.88,28.41,31,4,46,0.00
2013-2-19,25,16,9,7,-2,-8,53,45,33,29.21,28.88,32,7,45,0.00
2013-2-20,26,16,4,3,-4,-13,44,40,35,29.21,29.03,13,0,21,0.00
2013-2-21,26,23,21,20,11,1,86,62,39,29.06,28.67,12,0,30,0.00
2013-2-22,25,19,10,17,10,0,82,66,50,28.85,28.67,0,0,18,0.00
2013-2-23,36,22,6,21,10,-4,79,62,48,28.85,28.67,8,0,8,0.00
2013-2-24,46,32,20,24,20,14,81,62,38,28.91,28.73,0,0,8,0.00
2013-2-25,38,30,26,24,22,19,87,72,50,28.91,28.76,8,0,21,0.00
2013-2-26,33,29,26,26,24,21,90,80,71,28.76,28.61,30,6,39,0.00
2013-2-27,37,30,24,22,18,12,79,61,43,28.94,28.73,27,5,45,0.00
2013-2-28,33,28,25,20,17,14,71,64,50,29.06,28.94,31,6,40,0.00